sensor_id;sensor_type;location;lat;lon;timestamp;temperature;humidity
4727;DHT22;2377;51.734;8.950;2023-11-18T00:01:55;5.00;1.00
4727;DHT22;2377;51.734;8.950;2023-11-18T00:04:23;5.00;1.00
4727;DHT22;2377;51.734;8.950;2023-11-18T00:06:50;5.00;1.00
4727;DHT22;2377;51.734;8.950;2023-11-18T00:09:22;4.90;1.00
4727;DHT22;2377;51.734;8.950;2023-11-18T00:11:50;4.90;1.00
4727;DHT22;2377;51.734;8.950;2023-11-18T00:14:19;4.90;1.00
4727;DHT22;2377;51.734;8.950;2023-11-18T00:16:47;4.80;1.00
4727;DHT22;2377;51.734;8.950;2023-11-18T00:19:16;4.80;1.00
4727;DHT22;2377;51.734;8.950;2023-11-18T00:21:43;4.80;1.00
4727;DHT22;2377;51.734;8.950;2023-11-18T00:24:13;4.70;1.00
4727;DHT22;2377;51.734;8.950;2023-11-18T00:26:42;4.60;1.00
4727;DHT22;2377;51.734;8.950;2023-11-18T00:29:09;4.60;1.00
4727;DHT22;2377;51.734;8.950;2023-11-18T00:31:36;4.50;1.00
4727;DHT22;2377;51.734;8.950;2023-11-18T00:34:04;4.50;1.00
4727;DHT22;2377;51.734;8.950;2023-11-18T00:36:31;4.40;1.00
4727;DHT22;2377;51.734;8.950;2023-11-18T00:39:00;4.50;1.00
4727;DHT22;2377;51.734;8.950;2023-11-18T00:41:29;4.50;1.00
4727;DHT22;2377;51.734;8.950;2023-11-18T00:43:59;4.40;1.00
4727;DHT22;2377;51.734;8.950;2023-11-18T00:46:27;4.40;1.00
4727;DHT22;2377;51.734;8.950;2023-11-18T00:48:54;4.40;1.00
4727;DHT22;2377;51.734;8.950;2023-11-18T00:51:24;4.30;1.00
4727;DHT22;2377;51.734;8.950;2023-11-18T00:53:53;4.40;1.00
4727;DHT22;2377;51.734;8.950;2023-11-18T00:56:21;4.30;1.00
4727;DHT22;2377;51.734;8.950;2023-11-18T00:58:51;4.30;1.00
4727;DHT22;2377;51.734;8.950;2023-11-18T01:01:20;4.30;1.00
4727;DHT22;2377;51.734;8.950;2023-11-18T01:03:47;4.30;1.00
4727;DHT22;2377;51.734;8.950;2023-11-18T01:06:15;4.30;1.00
4727;DHT22;2377;51.734;8.950;2023-11-18T01:08:50;4.30;1.00
4727;DHT22;2377;51.734;8.950;2023-11-18T01:11:17;4.30;1.00
4727;DHT22;2377;51.734;8.950;2023-11-18T01:13:48;4.30;1.00
4727;DHT22;2377;51.734;8.950;2023-11-18T01:16:15;4.30;1.00
4727;DHT22;2377;51.734;8.950;2023-11-18T01:18:54;4.40;1.00
4727;DHT22;2377;51.734;8.950;2023-11-18T01:21:21;4.40;1.00
4727;DHT22;2377;51.734;8.950;2023-11-18T01:23:50;4.50;1.00
4727;DHT22;2377;51.734;8.950;2023-11-18T01:26:18;4.50;1.00
4727;DHT22;2377;51.734;8.950;2023-11-18T01:28:47;4.50;1.00
4727;DHT22;2377;51.734;8.950;2023-11-18T01:31:14;4.50;1.00
4727;DHT22;2377;51.734;8.950;2023-11-18T01:33:43;4.50;1.00
4727;DHT22;2377;51.734;8.950;2023-11-18T01:36:17;4.50;1.00
4727;DHT22;2377;51.734;8.950;2023-11-18T01:38:45;4.40;1.00
4727;DHT22;2377;51.734;8.950;2023-11-18T01:41:14;4.40;1.00
4727;DHT22;2377;51.734;8.950;2023-11-18T01:43:45;4.30;1.00
4727;DHT22;2377;51.734;8.950;2023-11-18T01:46:13;4.30;1.00
4727;DHT22;2377;51.734;8.950;2023-11-18T01:48:41;4.20;1.00
4727;DHT22;2377;51.734;8.950;2023-11-18T01:51:10;4.20;1.00
4727;DHT22;2377;51.734;8.950;2023-11-18T01:53:40;4.20;1.00
4727;DHT22;2377;51.734;8.950;2023-11-18T01:56:13;4.20;1.00
4727;DHT22;2377;51.734;8.950;2023-11-18T01:58:42;4.10;1.00
4727;DHT22;2377;51.734;8.950;2023-11-18T02:01:10;4.10;1.00
4727;DHT22;2377;51.734;8.950;2023-11-18T02:03:37;4.00;1.00
4727;DHT22;2377;51.734;8.950;2023-11-18T02:06:08;4.00;1.00
4727;DHT22;2377;51.734;8.950;2023-11-18T02:08:38;3.90;1.00
4727;DHT22;2377;51.734;8.950;2023-11-18T02:11:13;3.80;1.00
4727;DHT22;2377;51.734;8.950;2023-11-18T02:13:48;3.80;1.00
4727;DHT22;2377;51.734;8.950;2023-11-18T02:16:20;3.70;1.00
4727;DHT22;2377;51.734;8.950;2023-11-18T02:18:49;3.60;1.00
4727;DHT22;2377;51.734;8.950;2023-11-18T02:21:19;3.60;1.00
4727;DHT22;2377;51.734;8.950;2023-11-18T02:23:50;3.60;1.00
4727;DHT22;2377;51.734;8.950;2023-11-18T02:26:23;3.60;1.00
4727;DHT22;2377;51.734;8.950;2023-11-18T02:28:52;3.50;1.00
4727;DHT22;2377;51.734;8.950;2023-11-18T02:31:27;3.40;1.00
4727;DHT22;2377;51.734;8.950;2023-11-18T02:34:07;3.30;1.00
4727;DHT22;2377;51.734;8.950;2023-11-18T02:36:44;3.30;1.00
4727;DHT22;2377;51.734;8.950;2023-11-18T02:39:21;3.10;1.00
4727;DHT22;2377;51.734;8.950;2023-11-18T02:41:56;3.10;1.00
4727;DHT22;2377;51.734;8.950;2023-11-18T02:44:30;3.10;1.00
4727;DHT22;2377;51.734;8.950;2023-11-18T02:47:03;3.10;1.00
4727;DHT22;2377;51.734;8.950;2023-11-18T02:49:32;3.00;1.00
4727;DHT22;2377;51.734;8.950;2023-11-18T02:52:05;3.00;1.00
4727;DHT22;2377;51.734;8.950;2023-11-18T02:54:35;2.90;1.00
4727;DHT22;2377;51.734;8.950;2023-11-18T02:57:04;2.80;1.00
4727;DHT22;2377;51.734;8.950;2023-11-18T02:59:34;2.70;1.00
4727;DHT22;2377;51.734;8.950;2023-11-18T03:02:01;2.70;1.00
4727;DHT22;2377;51.734;8.950;2023-11-18T03:04:28;2.70;1.00
4727;DHT22;2377;51.734;8.950;2023-11-18T03:06:58;2.70;1.00
4727;DHT22;2377;51.734;8.950;2023-11-18T03:09:26;2.70;1.00
4727;DHT22;2377;51.734;8.950;2023-11-18T03:11:53;2.70;1.00
4727;DHT22;2377;51.734;8.950;2023-11-18T03:14:22;2.60;1.00
4727;DHT22;2377;51.734;8.950;2023-11-18T03:16:50;2.60;1.00
4727;DHT22;2377;51.734;8.950;2023-11-18T03:19:17;2.50;1.00
4727;DHT22;2377;51.734;8.950;2023-11-18T03:21:50;2.50;1.00
4727;DHT22;2377;51.734;8.950;2023-11-18T03:24:20;2.50;1.00
4727;DHT22;2377;51.734;8.950;2023-11-18T03:26:47;2.50;1.00
4727;DHT22;2377;51.734;8.950;2023-11-18T03:29:14;2.40;1.00
4727;DHT22;2377;51.734;8.950;2023-11-18T03:31:43;2.30;1.00
4727;DHT22;2377;51.734;8.950;2023-11-18T03:34:17;2.30;1.00
4727;DHT22;2377;51.734;8.950;2023-11-18T03:36:45;2.30;1.00
4727;DHT22;2377;51.734;8.950;2023-11-18T03:39:13;2.30;1.00
4727;DHT22;2377;51.734;8.950;2023-11-18T03:41:42;2.30;1.00
4727;DHT22;2377;51.734;8.950;2023-11-18T03:44:12;2.20;1.00
4727;DHT22;2377;51.734;8.950;2023-11-18T03:46:40;2.20;1.00
4727;DHT22;2377;51.734;8.950;2023-11-18T03:49:09;2.10;1.00
4727;DHT22;2377;51.734;8.950;2023-11-18T03:51:36;2.10;1.00
4727;DHT22;2377;51.734;8.950;2023-11-18T03:54:05;2.10;1.00
4727;DHT22;2377;51.734;8.950;2023-11-18T03:56:34;2.00;1.00
4727;DHT22;2377;51.734;8.950;2023-11-18T03:59:01;2.00;1.00
4727;DHT22;2377;51.734;8.950;2023-11-18T04:01:31;2.00;1.00
4727;DHT22;2377;51.734;8.950;2023-11-18T04:03:58;2.00;1.00
4727;DHT22;2377;51.734;8.950;2023-11-18T04:06:27;2.00;1.00
4727;DHT22;2377;51.734;8.950;2023-11-18T04:08:54;2.00;1.00
4727;DHT22;2377;51.734;8.950;2023-11-18T04:11:21;2.00;1.00
4727;DHT22;2377;51.734;8.950;2023-11-18T04:13:49;2.00;1.00
4727;DHT22;2377;51.734;8.950;2023-11-18T04:16:16;2.00;1.00
4727;DHT22;2377;51.734;8.950;2023-11-18T04:18:45;2.00;1.00
4727;DHT22;2377;51.734;8.950;2023-11-18T04:21:13;1.90;1.00
4727;DHT22;2377;51.734;8.950;2023-11-18T04:23:43;1.90;1.00
4727;DHT22;2377;51.734;8.950;2023-11-18T04:26:12;1.80;1.00
4727;DHT22;2377;51.734;8.950;2023-11-18T04:28:39;1.80;1.00
4727;DHT22;2377;51.734;8.950;2023-11-18T04:31:07;1.80;1.00
4727;DHT22;2377;51.734;8.950;2023-11-18T04:33:35;1.80;1.00
4727;DHT22;2377;51.734;8.950;2023-11-18T04:36:02;1.80;1.00
4727;DHT22;2377;51.734;8.950;2023-11-18T04:38:31;1.80;1.00
4727;DHT22;2377;51.734;8.950;2023-11-18T04:41:00;1.70;1.00
4727;DHT22;2377;51.734;8.950;2023-11-18T04:43:29;1.70;1.00
4727;DHT22;2377;51.734;8.950;2023-11-18T04:45:56;1.70;1.00
4727;DHT22;2377;51.734;8.950;2023-11-18T04:48:23;1.60;1.00
4727;DHT22;2377;51.734;8.950;2023-11-18T04:50:50;1.60;1.00
4727;DHT22;2377;51.734;8.950;2023-11-18T04:53:17;1.60;1.00
4727;DHT22;2377;51.734;8.950;2023-11-18T04:55:44;1.60;1.00
4727;DHT22;2377;51.734;8.950;2023-11-18T04:58:12;1.50;1.00
4727;DHT22;2377;51.734;8.950;2023-11-18T05:00:41;1.50;1.00
4727;DHT22;2377;51.734;8.950;2023-11-18T05:03:08;1.50;1.00
4727;DHT22;2377;51.734;8.950;2023-11-18T05:05:35;1.50;1.00
4727;DHT22;2377;51.734;8.950;2023-11-18T05:08:04;1.50;1.00
4727;DHT22;2377;51.734;8.950;2023-11-18T05:10:33;1.50;1.00
4727;DHT22;2377;51.734;8.950;2023-11-18T05:13:02;1.50;1.00
4727;DHT22;2377;51.734;8.950;2023-11-18T05:15:30;1.50;1.00
4727;DHT22;2377;51.734;8.950;2023-11-18T05:17:58;1.40;1.00
4727;DHT22;2377;51.734;8.950;2023-11-18T05:20:26;1.50;1.00
4727;DHT22;2377;51.734;8.950;2023-11-18T05:22:53;1.40;1.00
4727;DHT22;2377;51.734;8.950;2023-11-18T05:25:20;1.40;1.00
4727;DHT22;2377;51.734;8.950;2023-11-18T05:27:47;1.40;1.00
4727;DHT22;2377;51.734;8.950;2023-11-18T05:30:14;1.30;1.00
4727;DHT22;2377;51.734;8.950;2023-11-18T05:32:42;1.30;1.00
4727;DHT22;2377;51.734;8.950;2023-11-18T05:35:09;1.30;1.00
4727;DHT22;2377;51.734;8.950;2023-11-18T05:37:37;1.20;1.00
4727;DHT22;2377;51.734;8.950;2023-11-18T05:40:07;1.20;1.00
4727;DHT22;2377;51.734;8.950;2023-11-18T05:42:35;1.10;1.00
4727;DHT22;2377;51.734;8.950;2023-11-18T05:45:04;1.10;1.00
4727;DHT22;2377;51.734;8.950;2023-11-18T05:47:33;1.10;1.00
4727;DHT22;2377;51.734;8.950;2023-11-18T05:50:02;1.10;1.00
4727;DHT22;2377;51.734;8.950;2023-11-18T05:52:31;1.10;1.00
4727;DHT22;2377;51.734;8.950;2023-11-18T05:54:59;1.10;1.00
4727;DHT22;2377;51.734;8.950;2023-11-18T05:57:26;1.10;1.00
4727;DHT22;2377;51.734;8.950;2023-11-18T05:59:53;1.10;1.00
4727;DHT22;2377;51.734;8.950;2023-11-18T06:02:21;1.10;1.00
4727;DHT22;2377;51.734;8.950;2023-11-18T06:04:50;1.10;1.00
4727;DHT22;2377;51.734;8.950;2023-11-18T06:07:19;1.10;1.00
4727;DHT22;2377;51.734;8.950;2023-11-18T06:09:45;1.10;1.00
4727;DHT22;2377;51.734;8.950;2023-11-18T06:12:12;1.10;1.00
4727;DHT22;2377;51.734;8.950;2023-11-18T06:14:43;1.10;1.00
4727;DHT22;2377;51.734;8.950;2023-11-18T06:17:10;1.10;1.00
4727;DHT22;2377;51.734;8.950;2023-11-18T06:19:38;1.00;1.00
4727;DHT22;2377;51.734;8.950;2023-11-18T06:22:05;1.00;1.00
4727;DHT22;2377;51.734;8.950;2023-11-18T06:24:34;1.00;1.00
4727;DHT22;2377;51.734;8.950;2023-11-18T06:27:01;1.00;1.00
4727;DHT22;2377;51.734;8.950;2023-11-18T06:29:28;1.00;1.00
4727;DHT22;2377;51.734;8.950;2023-11-18T06:31:55;1.10;1.00
4727;DHT22;2377;51.734;8.950;2023-11-18T06:34:22;1.10;1.00
4727;DHT22;2377;51.734;8.950;2023-11-18T06:36:49;1.00;1.00
4727;DHT22;2377;51.734;8.950;2023-11-18T06:39:16;1.00;1.00
4727;DHT22;2377;51.734;8.950;2023-11-18T06:41:46;1.00;1.00
4727;DHT22;2377;51.734;8.950;2023-11-18T06:44:16;1.00;1.00
4727;DHT22;2377;51.734;8.950;2023-11-18T06:46:49;1.00;1.00
4727;DHT22;2377;51.734;8.950;2023-11-18T06:49:16;1.10;1.00
4727;DHT22;2377;51.734;8.950;2023-11-18T06:51:45;1.10;1.00
4727;DHT22;2377;51.734;8.950;2023-11-18T06:54:12;1.10;1.00
4727;DHT22;2377;51.734;8.950;2023-11-18T06:56:41;1.10;1.00
4727;DHT22;2377;51.734;8.950;2023-11-18T06:59:11;1.10;1.00
4727;DHT22;2377;51.734;8.950;2023-11-18T07:01:39;1.20;1.00
4727;DHT22;2377;51.734;8.950;2023-11-18T07:04:08;1.30;1.00
4727;DHT22;2377;51.734;8.950;2023-11-18T07:06:35;1.40;1.00
4727;DHT22;2377;51.734;8.950;2023-11-18T07:09:04;1.50;1.00
4727;DHT22;2377;51.734;8.950;2023-11-18T07:11:39;1.50;1.00
4727;DHT22;2377;51.734;8.950;2023-11-18T07:14:07;1.50;1.00
4727;DHT22;2377;51.734;8.950;2023-11-18T07:16:37;1.60;1.00
4727;DHT22;2377;51.734;8.950;2023-11-18T07:19:05;1.60;1.00
4727;DHT22;2377;51.734;8.950;2023-11-18T07:21:33;1.60;1.00
4727;DHT22;2377;51.734;8.950;2023-11-18T07:24:00;1.60;1.00
4727;DHT22;2377;51.734;8.950;2023-11-18T07:26:28;1.60;1.00
4727;DHT22;2377;51.734;8.950;2023-11-18T07:28:54;1.70;1.00
4727;DHT22;2377;51.734;8.950;2023-11-18T07:31:21;1.70;1.00
4727;DHT22;2377;51.734;8.950;2023-11-18T07:33:51;1.70;1.00
4727;DHT22;2377;51.734;8.950;2023-11-18T07:36:18;1.80;1.00
4727;DHT22;2377;51.734;8.950;2023-11-18T07:38:46;1.80;1.00
4727;DHT22;2377;51.734;8.950;2023-11-18T07:41:13;1.80;1.00
4727;DHT22;2377;51.734;8.950;2023-11-18T07:43:49;1.80;1.00
4727;DHT22;2377;51.734;8.950;2023-11-18T07:46:18;1.80;1.00
4727;DHT22;2377;51.734;8.950;2023-11-18T07:48:47;1.80;1.00
4727;DHT22;2377;51.734;8.950;2023-11-18T07:51:16;1.90;1.00
4727;DHT22;2377;51.734;8.950;2023-11-18T07:53:42;1.90;1.00
4727;DHT22;2377;51.734;8.950;2023-11-18T07:56:10;1.90;1.00
4727;DHT22;2377;51.734;8.950;2023-11-18T07:58:38;1.90;1.00
4727;DHT22;2377;51.734;8.950;2023-11-18T08:01:07;2.00;1.00
4727;DHT22;2377;51.734;8.950;2023-11-18T08:03:34;2.00;1.00
4727;DHT22;2377;51.734;8.950;2023-11-18T08:06:03;2.00;1.00
4727;DHT22;2377;51.734;8.950;2023-11-18T08:08:33;2.00;1.00
4727;DHT22;2377;51.734;8.950;2023-11-18T08:11:01;2.00;1.00
4727;DHT22;2377;51.734;8.950;2023-11-18T08:13:30;2.10;1.00
4727;DHT22;2377;51.734;8.950;2023-11-18T08:15:57;2.10;1.00
4727;DHT22;2377;51.734;8.950;2023-11-18T08:18:24;2.10;1.00
4727;DHT22;2377;51.734;8.950;2023-11-18T08:20:53;2.30;1.00
4727;DHT22;2377;51.734;8.950;2023-11-18T08:23:20;2.30;1.00
4727;DHT22;2377;51.734;8.950;2023-11-18T08:25:48;2.40;1.00
4727;DHT22;2377;51.734;8.950;2023-11-18T08:28:16;2.50;1.00
4727;DHT22;2377;51.734;8.950;2023-11-18T08:30:43;2.50;1.00
4727;DHT22;2377;51.734;8.950;2023-11-18T08:33:10;2.50;1.00
4727;DHT22;2377;51.734;8.950;2023-11-18T08:35:37;2.60;1.00
4727;DHT22;2377;51.734;8.950;2023-11-18T08:38:05;2.70;1.00
4727;DHT22;2377;51.734;8.950;2023-11-18T08:40:33;2.80;1.00
4727;DHT22;2377;51.734;8.950;2023-11-18T08:43:03;2.80;1.00
4727;DHT22;2377;51.734;8.950;2023-11-18T08:45:33;2.80;1.00
4727;DHT22;2377;51.734;8.950;2023-11-18T08:48:02;2.80;1.00
4727;DHT22;2377;51.734;8.950;2023-11-18T08:50:32;3.00;1.00
4727;DHT22;2377;51.734;8.950;2023-11-18T08:53:00;3.00;1.00
4727;DHT22;2377;51.734;8.950;2023-11-18T08:55:30;3.00;1.00
4727;DHT22;2377;51.734;8.950;2023-11-18T08:58:17;3.10;1.00
4727;DHT22;2377;51.734;8.950;2023-11-18T09:00:54;3.10;1.00
4727;DHT22;2377;51.734;8.950;2023-11-18T09:03:30;3.10;1.00
4727;DHT22;2377;51.734;8.950;2023-11-18T09:06:02;3.10;1.00
4727;DHT22;2377;51.734;8.950;2023-11-18T09:08:31;3.30;1.00
4727;DHT22;2377;51.734;8.950;2023-11-18T09:11:02;3.30;1.00
4727;DHT22;2377;51.734;8.950;2023-11-18T09:13:33;3.40;1.00
4727;DHT22;2377;51.734;8.950;2023-11-18T09:16:02;3.50;1.00
4727;DHT22;2377;51.734;8.950;2023-11-18T09:18:34;3.50;1.00
4727;DHT22;2377;51.734;8.950;2023-11-18T09:21:04;3.50;1.00
4727;DHT22;2377;51.734;8.950;2023-11-18T09:23:33;3.60;1.00
4727;DHT22;2377;51.734;8.950;2023-11-18T09:26:01;4.00;1.00
4727;DHT22;2377;51.734;8.950;2023-11-18T09:28:35;4.40;1.00
4727;DHT22;2377;51.734;8.950;2023-11-18T09:31:03;4.60;1.00
4727;DHT22;2377;51.734;8.950;2023-11-18T09:33:32;4.60;1.00
4727;DHT22;2377;51.734;8.950;2023-11-18T09:36:01;5.00;1.00
4727;DHT22;2377;51.734;8.950;2023-11-18T09:38:34;5.30;99.90
4727;DHT22;2377;51.734;8.950;2023-11-18T09:41:03;5.50;99.90
4727;DHT22;2377;51.734;8.950;2023-11-18T09:43:33;5.50;99.90
4727;DHT22;2377;51.734;8.950;2023-11-18T09:46:09;5.60;99.90
4727;DHT22;2377;51.734;8.950;2023-11-18T09:48:42;5.60;99.90
4727;DHT22;2377;51.734;8.950;2023-11-18T09:51:19;5.60;99.90
4727;DHT22;2377;51.734;8.950;2023-11-18T09:53:51;5.50;99.90
4727;DHT22;2377;51.734;8.950;2023-11-18T09:56:24;5.50;99.90
4727;DHT22;2377;51.734;8.950;2023-11-18T09:59:10;5.50;99.90
4727;DHT22;2377;51.734;8.950;2023-11-18T10:01:43;5.50;99.90
4727;DHT22;2377;51.734;8.950;2023-11-18T10:04:12;5.50;99.90
4727;DHT22;2377;51.734;8.950;2023-11-18T10:06:44;5.50;99.90
4727;DHT22;2377;51.734;8.950;2023-11-18T10:09:12;5.40;99.90
4727;DHT22;2377;51.734;8.950;2023-11-18T10:11:44;5.30;99.90
4727;DHT22;2377;51.734;8.950;2023-11-18T10:14:15;5.20;99.90
4727;DHT22;2377;51.734;8.950;2023-11-18T10:16:43;5.10;99.90
4727;DHT22;2377;51.734;8.950;2023-11-18T10:19:12;5.10;99.90
4727;DHT22;2377;51.734;8.950;2023-11-18T10:21:40;5.10;99.90
4727;DHT22;2377;51.734;8.950;2023-11-18T10:24:08;5.00;1.00
4727;DHT22;2377;51.734;8.950;2023-11-18T10:26:41;5.00;1.00
4727;DHT22;2377;51.734;8.950;2023-11-18T10:29:10;5.00;1.00
4727;DHT22;2377;51.734;8.950;2023-11-18T10:31:40;5.00;1.00
4727;DHT22;2377;51.734;8.950;2023-11-18T10:34:12;5.00;1.00
4727;DHT22;2377;51.734;8.950;2023-11-18T10:36:41;5.00;1.00
4727;DHT22;2377;51.734;8.950;2023-11-18T10:41:58;5.00;1.00
4727;DHT22;2377;51.734;8.950;2023-11-18T10:44:27;5.00;1.00
4727;DHT22;2377;51.734;8.950;2023-11-18T10:46:57;5.00;1.00
4727;DHT22;2377;51.734;8.950;2023-11-18T10:49:28;5.00;1.00
4727;DHT22;2377;51.734;8.950;2023-11-18T10:52:02;5.00;1.00
4727;DHT22;2377;51.734;8.950;2023-11-18T10:54:34;5.00;1.00
4727;DHT22;2377;51.734;8.950;2023-11-18T10:57:05;5.00;1.00
4727;DHT22;2377;51.734;8.950;2023-11-18T10:59:34;5.00;1.00
4727;DHT22;2377;51.734;8.950;2023-11-18T11:02:18;5.00;1.00
4727;DHT22;2377;51.734;8.950;2023-11-18T11:04:49;5.00;1.00
4727;DHT22;2377;51.734;8.950;2023-11-18T11:07:21;5.10;1.00
4727;DHT22;2377;51.734;8.950;2023-11-18T11:10:00;5.10;1.00
4727;DHT22;2377;51.734;8.950;2023-11-18T11:12:37;5.10;1.00
4727;DHT22;2377;51.734;8.950;2023-11-18T11:15:20;5.20;1.00
4727;DHT22;2377;51.734;8.950;2023-11-18T11:17:54;5.20;1.00
4727;DHT22;2377;51.734;8.950;2023-11-18T11:20:31;5.30;99.90
4727;DHT22;2377;51.734;8.950;2023-11-18T11:23:14;5.30;1.00
4727;DHT22;2377;51.734;8.950;2023-11-18T11:26:00;5.30;1.00
4727;DHT22;2377;51.734;8.950;2023-11-18T11:28:42;5.30;1.00
4727;DHT22;2377;51.734;8.950;2023-11-18T11:31:16;5.30;1.00
4727;DHT22;2377;51.734;8.950;2023-11-18T11:33:57;5.30;1.00
4727;DHT22;2377;51.734;8.950;2023-11-18T11:36:37;5.30;99.90
4727;DHT22;2377;51.734;8.950;2023-11-18T11:39:09;5.20;1.00
4727;DHT22;2377;51.734;8.950;2023-11-18T11:41:44;5.20;1.00
4727;DHT22;2377;51.734;8.950;2023-11-18T11:44:13;5.20;99.90
4727;DHT22;2377;51.734;8.950;2023-11-18T11:46:44;5.30;1.00
4727;DHT22;2377;51.734;8.950;2023-11-18T11:49:23;5.30;1.00
4727;DHT22;2377;51.734;8.950;2023-11-18T11:51:59;5.30;1.00
4727;DHT22;2377;51.734;8.950;2023-11-18T11:54:39;5.30;1.00
4727;DHT22;2377;51.734;8.950;2023-11-18T11:57:12;5.30;1.00
4727;DHT22;2377;51.734;8.950;2023-11-18T11:59:59;5.30;1.00
4727;DHT22;2377;51.734;8.950;2023-11-18T12:02:48;5.30;1.00
4727;DHT22;2377;51.734;8.950;2023-11-18T12:05:22;5.40;1.00
4727;DHT22;2377;51.734;8.950;2023-11-18T12:07:55;5.40;1.00
4727;DHT22;2377;51.734;8.950;2023-11-18T12:10:30;5.50;1.00
4727;DHT22;2377;51.734;8.950;2023-11-18T12:13:07;5.40;1.00
4727;DHT22;2377;51.734;8.950;2023-11-18T12:15:48;5.40;1.00
4727;DHT22;2377;51.734;8.950;2023-11-18T12:18:26;5.30;1.00
4727;DHT22;2377;51.734;8.950;2023-11-18T12:20:59;5.30;1.00
4727;DHT22;2377;51.734;8.950;2023-11-18T12:23:29;5.30;1.00
4727;DHT22;2377;51.734;8.950;2023-11-18T12:26:00;5.30;1.00
4727;DHT22;2377;51.734;8.950;2023-11-18T12:28:32;5.20;1.00
4727;DHT22;2377;51.734;8.950;2023-11-18T12:31:04;5.20;1.00
4727;DHT22;2377;51.734;8.950;2023-11-18T12:34:08;5.20;1.00
4727;DHT22;2377;51.734;8.950;2023-11-18T12:37:06;5.20;1.00
4727;DHT22;2377;51.734;8.950;2023-11-18T12:40:23;5.10;1.00
4727;DHT22;2377;51.734;8.950;2023-11-18T12:46:49;5.10;1.00
4727;DHT22;2377;51.734;8.950;2023-11-18T12:49:19;5.00;1.00
4727;DHT22;2377;51.734;8.950;2023-11-18T12:51:51;5.00;1.00
4727;DHT22;2377;51.734;8.950;2023-11-18T12:54:23;5.00;1.00
4727;DHT22;2377;51.734;8.950;2023-11-18T12:57:03;5.00;1.00
4727;DHT22;2377;51.734;8.950;2023-11-18T13:18:58;5.30;99.90
4727;DHT22;2377;51.734;8.950;2023-11-18T13:21:27;5.20;1.00
4727;DHT22;2377;51.734;8.950;2023-11-18T13:23:58;5.30;1.00
4727;DHT22;2377;51.734;8.950;2023-11-18T13:26:25;5.10;1.00
4727;DHT22;2377;51.734;8.950;2023-11-18T13:28:56;5.00;1.00
4727;DHT22;2377;51.734;8.950;2023-11-18T13:31:25;5.00;1.00
4727;DHT22;2377;51.734;8.950;2023-11-18T13:33:57;5.00;1.00
4727;DHT22;2377;51.734;8.950;2023-11-18T13:36:30;5.00;1.00
4727;DHT22;2377;51.734;8.950;2023-11-18T13:39:02;5.00;1.00
4727;DHT22;2377;51.734;8.950;2023-11-18T13:41:34;5.00;1.00
4727;DHT22;2377;51.734;8.950;2023-11-18T13:44:33;5.00;1.00
4727;DHT22;2377;51.734;8.950;2023-11-18T13:47:05;5.00;1.00
4727;DHT22;2377;51.734;8.950;2023-11-18T13:49:35;5.00;1.00
4727;DHT22;2377;51.734;8.950;2023-11-18T13:52:06;5.00;1.00
4727;DHT22;2377;51.734;8.950;2023-11-18T13:54:42;5.00;1.00
4727;DHT22;2377;51.734;8.950;2023-11-18T13:57:12;4.90;1.00
4727;DHT22;2377;51.734;8.950;2023-11-18T13:59:44;4.90;1.00
4727;DHT22;2377;51.734;8.950;2023-11-18T14:02:12;4.90;1.00
4727;DHT22;2377;51.734;8.950;2023-11-18T14:04:41;5.00;1.00
4727;DHT22;2377;51.734;8.950;2023-11-18T14:07:22;4.90;1.00
4727;DHT22;2377;51.734;8.950;2023-11-18T14:09:54;4.90;1.00
4727;DHT22;2377;51.734;8.950;2023-11-18T14:12:23;4.90;1.00
4727;DHT22;2377;51.734;8.950;2023-11-18T14:14:53;4.90;1.00
4727;DHT22;2377;51.734;8.950;2023-11-18T14:17:21;5.00;1.00
4727;DHT22;2377;51.734;8.950;2023-11-18T14:19:49;5.00;1.00
4727;DHT22;2377;51.734;8.950;2023-11-18T14:22:21;4.90;1.00
4727;DHT22;2377;51.734;8.950;2023-11-18T14:24:51;4.90;1.00
4727;DHT22;2377;51.734;8.950;2023-11-18T14:27:21;5.00;1.00
4727;DHT22;2377;51.734;8.950;2023-11-18T14:29:50;4.90;1.00
4727;DHT22;2377;51.734;8.950;2023-11-18T14:32:18;4.90;1.00
4727;DHT22;2377;51.734;8.950;2023-11-18T14:34:46;4.90;1.00
4727;DHT22;2377;51.734;8.950;2023-11-18T14:37:17;4.90;1.00
4727;DHT22;2377;51.734;8.950;2023-11-18T14:39:45;4.90;1.00
4727;DHT22;2377;51.734;8.950;2023-11-18T14:42:12;4.90;1.00
4727;DHT22;2377;51.734;8.950;2023-11-18T14:44:47;5.00;1.00
4727;DHT22;2377;51.734;8.950;2023-11-18T14:47:15;4.90;1.00
4727;DHT22;2377;51.734;8.950;2023-11-18T14:49:44;4.80;1.00
4727;DHT22;2377;51.734;8.950;2023-11-18T14:52:15;4.90;1.00
4727;DHT22;2377;51.734;8.950;2023-11-18T14:54:44;4.90;1.00
4727;DHT22;2377;51.734;8.950;2023-11-18T14:57:12;4.90;1.00
4727;DHT22;2377;51.734;8.950;2023-11-18T14:59:40;5.00;1.00
4727;DHT22;2377;51.734;8.950;2023-11-18T15:02:07;4.90;1.00
4727;DHT22;2377;51.734;8.950;2023-11-18T15:04:35;4.90;1.00
4727;DHT22;2377;51.734;8.950;2023-11-18T15:07:04;4.90;1.00
4727;DHT22;2377;51.734;8.950;2023-11-18T15:09:40;4.90;1.00
4727;DHT22;2377;51.734;8.950;2023-11-18T15:12:09;4.80;1.00
4727;DHT22;2377;51.734;8.950;2023-11-18T15:14:37;4.80;1.00
4727;DHT22;2377;51.734;8.950;2023-11-18T15:17:04;4.80;1.00
4727;DHT22;2377;51.734;8.950;2023-11-18T15:19:32;4.90;1.00
4727;DHT22;2377;51.734;8.950;2023-11-18T15:22:00;4.90;1.00
4727;DHT22;2377;51.734;8.950;2023-11-18T15:24:29;4.90;1.00
4727;DHT22;2377;51.734;8.950;2023-11-18T15:26:59;4.90;1.00
4727;DHT22;2377;51.734;8.950;2023-11-18T15:29:29;4.90;1.00
4727;DHT22;2377;51.734;8.950;2023-11-18T15:32:07;4.90;1.00
4727;DHT22;2377;51.734;8.950;2023-11-18T15:34:34;4.90;1.00
4727;DHT22;2377;51.734;8.950;2023-11-18T15:37:02;5.00;1.00
4727;DHT22;2377;51.734;8.950;2023-11-18T15:39:31;5.00;1.00
4727;DHT22;2377;51.734;8.950;2023-11-18T15:42:02;5.00;1.00
4727;DHT22;2377;51.734;8.950;2023-11-18T15:44:31;5.00;1.00
4727;DHT22;2377;51.734;8.950;2023-11-18T15:47:00;5.00;1.00
4727;DHT22;2377;51.734;8.950;2023-11-18T15:49:27;5.00;1.00
4727;DHT22;2377;51.734;8.950;2023-11-18T15:51:55;5.00;1.00
4727;DHT22;2377;51.734;8.950;2023-11-18T15:54:22;5.00;1.00
4727;DHT22;2377;51.734;8.950;2023-11-18T15:56:50;5.00;1.00
4727;DHT22;2377;51.734;8.950;2023-11-18T15:59:20;5.00;1.00
4727;DHT22;2377;51.734;8.950;2023-11-18T16:01:47;5.00;1.00
4727;DHT22;2377;51.734;8.950;2023-11-18T16:04:15;5.00;1.00
4727;DHT22;2377;51.734;8.950;2023-11-18T16:06:43;5.00;1.00
4727;DHT22;2377;51.734;8.950;2023-11-18T16:09:11;5.00;1.00
4727;DHT22;2377;51.734;8.950;2023-11-18T16:11:39;5.00;1.00
4727;DHT22;2377;51.734;8.950;2023-11-18T16:14:06;5.00;1.00
4727;DHT22;2377;51.734;8.950;2023-11-18T16:16:35;5.00;1.00
4727;DHT22;2377;51.734;8.950;2023-11-18T16:19:04;5.00;1.00
4727;DHT22;2377;51.734;8.950;2023-11-18T16:21:31;5.00;1.00
4727;DHT22;2377;51.734;8.950;2023-11-18T16:24:01;5.00;1.00
4727;DHT22;2377;51.734;8.950;2023-11-18T16:26:30;5.00;1.00
4727;DHT22;2377;51.734;8.950;2023-11-18T16:29:00;5.00;1.00
4727;DHT22;2377;51.734;8.950;2023-11-18T16:31:29;5.00;1.00
4727;DHT22;2377;51.734;8.950;2023-11-18T16:34:00;5.00;1.00
4727;DHT22;2377;51.734;8.950;2023-11-18T16:36:29;5.00;1.00
4727;DHT22;2377;51.734;8.950;2023-11-18T16:38:59;5.10;1.00
4727;DHT22;2377;51.734;8.950;2023-11-18T16:41:26;5.10;1.00
4727;DHT22;2377;51.734;8.950;2023-11-18T16:43:54;5.10;1.00
4727;DHT22;2377;51.734;8.950;2023-11-18T16:46:27;5.10;1.00
4727;DHT22;2377;51.734;8.950;2023-11-18T16:49:00;5.10;1.00
4727;DHT22;2377;51.734;8.950;2023-11-18T16:51:27;5.10;1.00
4727;DHT22;2377;51.734;8.950;2023-11-18T16:53:54;5.10;1.00
4727;DHT22;2377;51.734;8.950;2023-11-18T16:56:24;5.10;1.00
4727;DHT22;2377;51.734;8.950;2023-11-18T16:58:53;5.10;1.00
4727;DHT22;2377;51.734;8.950;2023-11-18T17:01:23;5.10;1.00
4727;DHT22;2377;51.734;8.950;2023-11-18T17:03:51;5.20;1.00
4727;DHT22;2377;51.734;8.950;2023-11-18T17:06:25;5.20;1.00
4727;DHT22;2377;51.734;8.950;2023-11-18T17:08:53;5.30;1.00
4727;DHT22;2377;51.734;8.950;2023-11-18T17:11:24;5.30;1.00
4727;DHT22;2377;51.734;8.950;2023-11-18T17:13:52;5.30;1.00
4727;DHT22;2377;51.734;8.950;2023-11-18T17:16:24;5.30;1.00
4727;DHT22;2377;51.734;8.950;2023-11-18T17:18:55;5.30;1.00
4727;DHT22;2377;51.734;8.950;2023-11-18T17:21:27;5.30;4.30